TimeBST,TemperatureF,Dew PointF,Humidity,Sea Level PressureIn,VisibilityMPH,Wind Direction,Wind SpeedMPH,Gust SpeedMPH,PrecipitationIn,Events,Conditions,WindDirDegrees,DateUTC
12:50 AM,60,59,94,29.60,2,SW,31.1,,,Rain,Light Rain,230,2012-10-04 23:50:00
12:50 AM,59.0,59.0,100,29.59,2.2,SW,31.1,50.6,N/A,Rain,Light Rain,230,2012-10-04 23:50:00
1:50 AM,59.0,59.0,100,29.59,1.9,WSW,29.9,48.3,N/A,Rain,Light Rain,240,2012-10-05 00:50:00
2:50 AM,59.0,59.0,100,29.62,0.7,West,18.4,42.6,N/A,Rain,Light Rain,260,2012-10-05 01:50:00
3:50 AM,54,52,91,29.67,2,NNW,12.7,,,Rain,Light Rain,340,2012-10-05 02:50:00
3:50 AM,53.6,51.8,94,29.65,2.5,NNW,12.7,-,N/A,Rain,Light Rain,340,2012-10-05 02:50:00
4:50 AM,51.8,50.0,94,29.68,3.1,North,11.5,-,N/A,Rain,Light Rain,10,2012-10-05 03:50:00
5:50 AM,51.8,50.0,94,29.71,6.2,NW,5.8,-,N/A,Rain,Light Rain,320,2012-10-05 04:50:00
6:50 AM,52,50,89,29.75,16,West,6.9,,,Rain,Light Drizzle,280,2012-10-05 05:50:00
6:50 AM,51.8,50.0,94,29.74,6.2,West,6.9,-,N/A,,Light Drizzle,280,2012-10-05 05:50:00
7:50 AM,53.6,50.0,88,29.77,6.2,West,8.1,-,N/A,,Haze,280,2012-10-05 06:50:00
8:50 AM,53.6,50.0,88,29.80,6.2,West,9.2,-,N/A,,Mostly Cloudy,280,2012-10-05 07:50:00
9:50 AM,55,50,77,29.80,16,WSW,6.9,,,,Partly Cloudy,240,2012-10-05 08:50:00
9:50 AM,55.4,50.0,82,29.80,6.2,WSW,6.9,-,N/A,,Mostly Cloudy,240,2012-10-05 08:50:00
10:40 AM,55.4,48.2,77,29.80,6.2,WSW,6.9,-,N/A,,Overcast,240,2012-10-05 09:40:00
10:50 AM,55.4,48.2,77,29.80,5.0,WSW,5.8,-,N/A,,Light Drizzle,250,2012-10-05 09:50:00
11:17 AM,53.6,48.2,82,29.83,2.2,WNW,6.9,-,N/A,,Light Drizzle,290,2012-10-05 10:17:00
11:35 AM,51.8,50.0,94,29.83,1.5,WNW,6.9,-,N/A,,Drizzle,290,2012-10-05 10:35:00
11:50 AM,53.6,50.0,88,29.83,2.5,WNW,8.1,-,N/A,Rain,Light Rain,300,2012-10-05 10:50:00
12:50 PM,53,49,84,29.84,4,NNE,2.3,,,Rain,Light Drizzle,30,2012-10-05 11:50:00
12:50 PM,53.6,50.0,88,29.83,3.7,NNE,2.3,-,N/A,,Haze,30,2012-10-05 11:50:00
1:09 PM,53.6,50.0,88,29.83,2.2,NE,1.2,-,N/A,Rain,Light Rain,40,2012-10-05 12:09:00
1:34 PM,53.6,50.0,88,29.83,0.9,NE,1.2,-,N/A,Rain,Rain,40,2012-10-05 12:34:00
1:50 PM,51.8,50.0,94,29.83,0.6,North,3.5,-,N/A,Rain,Rain,350,2012-10-05 12:50:00
2:50 PM,51.8,50.0,94,29.83,1.6,NNE,8.1,-,N/A,Rain,Light Rain,30,2012-10-05 13:50:00
3:50 PM,52,51,93,29.83,2,ENE,6.9,,,Rain,Light Drizzle,70,2012-10-05 14:50:00
3:50 PM,51.8,50.0,94,29.80,1.7,ENE,6.9,-,N/A,,Light Drizzle,70,2012-10-05 14:50:00
4:50 PM,51.8,50.0,94,29.80,3.1,East,8.1,-,N/A,,Light Drizzle,80,2012-10-05 15:50:00
5:50 PM,51.8,51.8,100,29.77,2.5,East,10.4,-,N/A,,Light Drizzle,100,2012-10-05 16:50:00
6:50 PM,52,51,96,29.78,5,East,11.5,,,Rain,Light Drizzle,100,2012-10-05 17:50:00
6:50 PM,51.8,51.8,100,29.77,5.0,East,11.5,-,N/A,,Light Drizzle,100,2012-10-05 17:50:00
7:50 PM,55.4,55.4,100,29.74,5.0,SSE,9.2,-,N/A,,Light Drizzle,150,2012-10-05 18:50:00
8:50 PM,59.0,57.2,94,29.71,5.0,SW,19.6,32.2,N/A,,Light Drizzle,220,2012-10-05 19:50:00
9:50 PM,59,58,96,29.73,2,SW,23.0,,,Rain,Light Drizzle,220,2012-10-05 20:50:00
9:50 PM,59.0,59.0,100,29.71,1.6,SW,23.0,38.0,N/A,,Light Drizzle,220,2012-10-05 20:50:00
10:50 PM,59.0,57.2,94,29.71,2.5,SW,20.7,-,N/A,,Light Drizzle,220,2012-10-05 21:50:00
11:50 PM,59.0,57.2,94,29.68,1.8,SW,28.8,-,N/A,,Overcast,220,2012-10-05 22:50:00